Dongola, Arkansas
Current Conditions -  °F | °C
As of 2:35 AM on Thursday 27 Nov 2014 (Local Time) from KFLP Reporting Station
Overcast Overcast  
Wind Chill: 26°   Ceiling: 2900
Heat Index: 36°   Visibility: 10mi
Dew Point: 21°   Wind: 15mph
Humidity: 56%   Direction: 330°NNW
Pressure: 30.39"   Gusts: 18mph
Location:  35.9407°N, 92.655°W
Report Text: KFLP 270835Z AUTO 33013G16KT 10SM OVC029 02/M06 A3039 RMK AO1
Loading
Personal Weather Stations






























Interactive Weather Map New forecast layout! Learn more

10-Day Weather Forecast

Advertisements
Track Severe Weather on mobile